Time,TemperatureF,DewpointF,PressureIn,WindDirection,WindDirectionDegrees,WindSpeedMPH,WindSpeedGustMPH,Humidity,HourlyPrecipIn,Conditions,Clouds,dailyrainin,SoftwareType,DateUTC
2013-01-29 00:01:00,25.0,18.0,-100.00,WNW,285,9.0,11.0,74,-99.99,,,0.00,,2013-01-29 07:01:00,
2013-01-29 00:11:00,25.0,18.0,-100.00,WNW,285,9.0,11.0,74,-99.99,,,0.00,,2013-01-29 07:11:00,
2013-01-29 00:21:00,25.0,18.0,-100.00,WNW,285,9.0,11.0,74,-99.99,,,0.00,,2013-01-29 07:21:00,
2013-01-29 00:52:00,25.0,16.0,-100.00,WNW,290,8.0,9.0,66,-99.99,,,0.00,,2013-01-29 07:52:00,
2013-01-29 01:02:00,25.0,16.0,-100.00,WNW,290,8.0,9.0,66,-99.99,,,0.00,,2013-01-29 08:02:00,
2013-01-29 01:11:00,25.0,16.0,-100.00,WNW,290,8.0,9.0,66,-99.99,,,0.00,,2013-01-29 08:11:00,
2013-01-29 01:21:00,25.0,16.0,-100.00,WNW,290,8.0,9.0,66,-99.99,,,0.00,,2013-01-29 08:21:00,
2013-01-29 01:52:00,23.0,14.0,-100.00,NW,315,11.0,11.0,67,-99.99,,,0.00,,2013-01-29 08:52:00,
2013-01-29 02:01:00,23.0,14.0,-100.00,NW,315,11.0,11.0,67,-99.99,,,0.00,,2013-01-29 09:01:00,
2013-01-29 02:11:00,23.0,14.0,-100.00,NW,315,11.0,11.0,67,-99.99,,,0.00,,2013-01-29 09:11:00,
2013-01-29 02:21:00,23.0,14.0,-100.00,NW,315,11.0,11.0,67,-99.99,,,0.00,,2013-01-29 09:21:00,
2013-01-29 02:52:00,23.0,14.0,-100.00,NW,315,9.0,10.0,67,-99.99,,,0.00,,2013-01-29 09:52:00,
2013-01-29 03:01:00,23.0,14.0,-100.00,NW,315,9.0,10.0,67,-99.99,,,0.00,,2013-01-29 10:01:00,
2013-01-29 03:11:00,23.0,14.0,-100.00,NW,315,9.0,10.0,67,-99.99,,,0.00,,2013-01-29 10:11:00,
2013-01-29 03:21:00,23.0,14.0,-100.00,NW,315,9.0,10.0,67,-99.99,,,0.00,,2013-01-29 10:21:00,
2013-01-29 03:52:00,19.0,10.0,-100.00,NNE,25,12.0,16.0,69,-99.99,,,0.00,,2013-01-29 10:52:00,
2013-01-29 04:01:00,19.0,10.0,-100.00,NNE,25,12.0,16.0,69,-99.99,,,0.00,,2013-01-29 11:01:00,
2013-01-29 04:11:00,19.0,10.0,-100.00,NNE,25,12.0,16.0,69,-99.99,,,0.00,,2013-01-29 11:11:00,
2013-01-29 04:21:00,19.0,10.0,-100.00,NNE,25,12.0,16.0,69,-99.99,,,0.00,,2013-01-29 11:21:00,
2013-01-29 04:52:00,18.0,10.0,-100.00,NNE,15,9.0,11.0,71,-99.99,,,0.00,,2013-01-29 11:52:00,
2013-01-29 05:02:00,18.0,10.0,-100.00,NNE,15,9.0,11.0,71,-99.99,,,0.00,,2013-01-29 12:02:00,
2013-01-29 05:12:00,18.0,10.0,-100.00,NNE,15,9.0,11.0,71,-99.99,,,0.00,,2013-01-29 12:12:00,
2013-01-29 05:22:00,18.0,10.0,-100.00,NNE,15,9.0,11.0,71,-99.99,,,0.00,,2013-01-29 12:22:00,
2013-01-29 05:53:00,17.0,10.0,-100.00,North,0,9.0,11.0,73,-99.99,,,0.00,,2013-01-29 12:53:00,
2013-01-29 06:01:00,17.0,10.0,-100.00,North,0,9.0,11.0,73,-99.99,,,0.00,,2013-01-29 13:01:00,
2013-01-29 06:11:00,17.0,10.0,-100.00,North,0,9.0,11.0,73,-99.99,,,0.00,,2013-01-29 13:11:00,
2013-01-29 06:22:00,17.0,10.0,-100.00,North,0,9.0,11.0,73,-99.99,,,0.00,,2013-01-29 13:22:00,
2013-01-29 06:52:00,16.0,10.0,-100.00,North,355,7.0,9.0,77,-99.99,,,0.00,,2013-01-29 13:52:00,
2013-01-29 07:02:00,16.0,10.0,-100.00,North,355,7.0,9.0,77,-99.99,,,0.00,,2013-01-29 14:02:00,
2013-01-29 07:12:00,16.0,10.0,-100.00,North,355,7.0,9.0,77,-99.99,,,0.00,,2013-01-29 14:12:00,
2013-01-29 07:21:00,16.0,10.0,-100.00,North,355,7.0,9.0,77,-99.99,,,0.00,,2013-01-29 14:21:00,
2013-01-29 07:52:00,14.0,10.0,-100.00,NNE,30,11.0,13.0,82,-99.99,,,0.00,,2013-01-29 14:52:00,
2013-01-29 08:02:00,14.0,10.0,-100.00,NNE,30,11.0,13.0,82,-99.99,,,0.00,,2013-01-29 15:02:00,
2013-01-29 08:12:00,14.0,10.0,-100.00,NNE,30,11.0,13.0,82,-99.99,,,0.00,,2013-01-29 15:12:00,
2013-01-29 08:21:00,14.0,10.0,-100.00,NNE,30,11.0,13.0,82,-99.99,,,0.00,,2013-01-29 15:21:00,
2013-01-29 08:53:00,11.0,7.0,-100.00,NNE,25,21.0,24.0,84,-99.99,,,0.00,,2013-01-29 15:53:00,
2013-01-29 09:02:00,11.0,7.0,-100.00,NNE,25,21.0,24.0,84,-99.99,,,0.00,,2013-01-29 16:02:00,
2013-01-29 09:12:00,11.0,7.0,-100.00,NNE,25,21.0,24.0,84,-99.99,,,0.00,,2013-01-29 16:12:00,
2013-01-29 09:22:00,11.0,7.0,-100.00,NNE,25,21.0,24.0,84,-99.99,,,0.00,,2013-01-29 16:22:00,
2013-01-29 09:53:00,6.0,1.0,-100.00,NE,35,16.0,17.0,82,-99.99,,,0.00,,2013-01-29 16:53:00,
2013-01-29 10:03:00,6.0,1.0,-100.00,NE,35,16.0,17.0,82,-99.99,,,0.00,,2013-01-29 17:03:00,
2013-01-29 10:12:00,6.0,1.0,-100.00,NE,35,16.0,17.0,82,-99.99,,,0.00,,2013-01-29 17:12:00,
2013-01-29 10:21:00,6.0,1.0,-100.00,NE,35,16.0,17.0,82,-99.99,,,0.00,,2013-01-29 17:21:00,
2013-01-29 10:52:00,2.0,-3.0,-100.00,NNE,15,18.0,21.0,80,-99.99,,,0.00,,2013-01-29 17:52:00,
2013-01-29 11:03:00,2.0,-3.0,-100.00,NNE,15,18.0,21.0,80,-99.99,,,0.00,,2013-01-29 18:03:00,
2013-01-29 11:12:00,2.0,-3.0,-100.00,NNE,15,18.0,21.0,80,-99.99,,,0.00,,2013-01-29 18:12:00,
2013-01-29 11:22:00,2.0,-3.0,-100.00,NNE,15,18.0,21.0,80,-99.99,,,0.00,,2013-01-29 18:22:00,
2013-01-29 13:53:00,3.0,-3.0,-100.00,NNE,20,8.0,9.0,75,-99.99,,,0.00,,2013-01-29 20:53:00,
2013-01-29 14:02:00,3.0,-3.0,-100.00,NNE,20,8.0,9.0,75,-99.99,,,0.00,,2013-01-29 21:02:00,
2013-01-29 14:12:00,3.0,-3.0,-100.00,NNE,20,8.0,9.0,75,-99.99,,,0.00,,2013-01-29 21:12:00,
2013-01-29 14:22:00,3.0,-3.0,-100.00,NNE,20,8.0,9.0,75,-99.99,,,0.00,,2013-01-29 21:22:00,
2013-01-29 14:53:00,1.0,-5.0,-100.00,NE,55,8.0,9.0,73,-99.99,,,0.00,,2013-01-29 21:53:00,
2013-01-29 15:02:00,1.0,-5.0,-100.00,NE,55,8.0,9.0,73,-99.99,,,0.00,,2013-01-29 22:02:00,
2013-01-29 15:12:00,1.0,-5.0,-100.00,NE,55,8.0,9.0,73,-99.99,,,0.00,,2013-01-29 22:12:00,
2013-01-29 15:21:00,1.0,-5.0,-100.00,NE,55,8.0,9.0,73,-99.99,,,0.00,,2013-01-29 22:21:00,
2013-01-29 15:53:00,2.0,-5.0,-100.00,ENE,65,5.0,6.0,72,-99.99,,,0.00,,2013-01-29 22:53:00,
2013-01-29 16:02:00,2.0,-5.0,-100.00,ENE,65,5.0,6.0,72,-99.99,,,0.00,,2013-01-29 23:02:00,
2013-01-29 16:11:00,2.0,-5.0,-100.00,ENE,65,5.0,6.0,72,-99.99,,,0.00,,2013-01-29 23:11:00,
2013-01-29 16:22:00,2.0,-5.0,-100.00,ENE,65,5.0,6.0,72,-99.99,,,0.00,,2013-01-29 23:22:00,
2013-01-29 16:53:00,6.0,-2.0,-100.00,ESE,105,2.0,3.0,69,-99.99,,,-99.99,,2013-01-29 23:53:00,
2013-01-29 17:02:00,6.0,-2.0,-100.00,ESE,105,2.0,3.0,69,-99.99,,,-99.99,,2013-01-30 00:02:00,
2013-01-29 17:11:00,6.0,-2.0,-100.00,ESE,105,2.0,3.0,69,-99.99,,,-99.99,,2013-01-30 00:11:00,
2013-01-29 17:22:00,6.0,-2.0,-100.00,ESE,105,2.0,3.0,69,-99.99,,,-99.99,,2013-01-30 00:22:00,
2013-01-29 17:53:00,-1.0,-8.0,-100.00,SE,140,1.0,1.0,70,-99.99,,,0.00,,2013-01-30 00:53:00,
2013-01-29 18:01:00,-1.0,-8.0,-100.00,SE,140,1.0,1.0,70,-99.99,,,0.00,,2013-01-30 01:01:00,
2013-01-29 18:11:00,-1.0,-8.0,-100.00,SE,140,1.0,1.0,70,-99.99,,,0.00,,2013-01-30 01:11:00,
2013-01-29 18:22:00,-1.0,-8.0,-100.00,SE,140,1.0,1.0,70,-99.99,,,0.00,,2013-01-30 01:22:00,
2013-01-29 18:52:00,-2.0,-8.0,-100.00,South,180,4.0,4.0,76,-99.99,,,0.00,,2013-01-30 01:52:00,
2013-01-29 19:02:00,-2.0,-8.0,-100.00,South,180,4.0,4.0,76,-99.99,,,0.00,,2013-01-30 02:02:00,
2013-01-29 19:12:00,-2.0,-8.0,-100.00,South,180,4.0,4.0,76,-99.99,,,0.00,,2013-01-30 02:12:00,
2013-01-29 19:21:00,-2.0,-8.0,-100.00,South,180,4.0,4.0,76,-99.99,,,0.00,,2013-01-30 02:21:00,
2013-01-29 19:53:00,2.0,-4.0,-100.00,SE,130,5.0,8.0,76,-99.99,,,0.00,,2013-01-30 02:53:00,
2013-01-29 20:02:00,2.0,-4.0,-100.00,SE,130,5.0,8.0,76,-99.99,,,0.00,,2013-01-30 03:02:00,
2013-01-29 20:11:00,2.0,-4.0,-100.00,SE,130,5.0,8.0,76,-99.99,,,0.00,,2013-01-30 03:11:00,
2013-01-29 20:22:00,2.0,-4.0,-100.00,SE,130,5.0,8.0,76,-99.99,,,0.00,,2013-01-30 03:22:00,
2013-01-29 20:52:00,2.0,-3.0,-100.00,SE,135,8.0,8.0,77,-99.99,,,0.00,,2013-01-30 03:52:00,
2013-01-29 21:02:00,2.0,-3.0,-100.00,SE,135,8.0,8.0,77,-99.99,,,0.00,,2013-01-30 04:02:00,
2013-01-29 21:11:00,2.0,-3.0,-100.00,SE,135,8.0,8.0,77,-99.99,,,0.00,,2013-01-30 04:11:00,
2013-01-29 21:21:00,2.0,-3.0,-100.00,SE,135,8.0,8.0,77,-99.99,,,0.00,,2013-01-30 04:21:00,
2013-01-29 21:52:00,6.0,0.0,-100.00,ESE,120,7.0,8.0,76,-99.99,,,0.00,,2013-01-30 04:52:00,
2013-01-29 22:03:00,6.0,0.0,-100.00,ESE,120,7.0,8.0,76,-99.99,,,0.00,,2013-01-30 05:03:00,
2013-01-29 22:11:00,6.0,0.0,-100.00,ESE,120,7.0,8.0,76,-99.99,,,0.00,,2013-01-30 05:11:00,
2013-01-29 22:22:00,6.0,0.0,-100.00,ESE,120,7.0,8.0,76,-99.99,,,0.00,,2013-01-30 05:22:00,
2013-01-29 22:52:00,10.0,4.0,-100.00,SSE,155,15.0,16.0,75,-99.99,,,0.00,,2013-01-30 05:52:00,
2013-01-29 23:02:00,10.0,4.0,-100.00,SSE,155,15.0,16.0,75,-99.99,,,0.00,,2013-01-30 06:02:00,
2013-01-29 23:11:00,10.0,4.0,-100.00,SSE,155,15.0,16.0,75,-99.99,,,0.00,,2013-01-30 06:11:00,
2013-01-29 23:21:00,10.0,4.0,-100.00,SSE,155,15.0,16.0,75,-99.99,,,0.00,,2013-01-30 06:21:00,
2013-01-29 23:52:00,13.0,7.0,-100.00,SE,125,12.0,14.0,75,-99.99,,,0.00,,2013-01-30 06:52:00,